sensor_id;sensor_type;location;lat;lon;timestamp;P1;durP1;ratioP1;P2;durP2;ratioP2
31872;SDS011;22407;42.820;23.374;2023-12-28T00:22:48;24.90;;;12.73;;
31872;SDS011;22407;42.820;23.374;2023-12-28T00:25:14;23.37;;;11.63;;
31872;SDS011;22407;42.820;23.374;2023-12-28T00:27:39;22.93;;;11.27;;
31872;SDS011;22407;42.820;23.374;2023-12-28T00:30:05;22.57;;;10.60;;
31872;SDS011;22407;42.820;23.374;2023-12-28T00:32:31;25.77;;;12.80;;
31872;SDS011;22407;42.820;23.374;2023-12-28T00:34:56;19.77;;;11.03;;
31872;SDS011;22407;42.820;23.374;2023-12-28T00:37:22;20.43;;;10.50;;
31872;SDS011;22407;42.820;23.374;2023-12-28T00:39:47;21.92;;;10.30;;
31872;SDS011;22407;42.820;23.374;2023-12-28T00:42:15;22.97;;;10.50;;
31872;SDS011;22407;42.820;23.374;2023-12-28T00:44:40;18.88;;;9.60;;
31872;SDS011;22407;42.820;23.374;2023-12-28T00:47:06;19.67;;;9.75;;
31872;SDS011;22407;42.820;23.374;2023-12-28T00:49:32;20.57;;;9.73;;
31872;SDS011;22407;42.820;23.374;2023-12-28T00:51:57;19.60;;;9.77;;
31872;SDS011;22407;42.820;23.374;2023-12-28T00:54:23;20.38;;;10.02;;
31872;SDS011;22407;42.820;23.374;2023-12-28T00:56:48;21.77;;;10.20;;
31872;SDS011;22407;42.820;23.374;2023-12-28T00:59:14;24.20;;;12.10;;
31872;SDS011;22407;42.820;23.374;2023-12-28T01:01:39;23.67;;;11.90;;
31872;SDS011;22407;42.820;23.374;2023-12-28T01:04:05;21.33;;;11.98;;
31872;SDS011;22407;42.820;23.374;2023-12-28T01:06:30;23.30;;;10.77;;
31872;SDS011;22407;42.820;23.374;2023-12-28T01:08:56;23.80;;;11.23;;
31872;SDS011;22407;42.820;23.374;2023-12-28T01:11:21;23.95;;;11.90;;
31872;SDS011;22407;42.820;23.374;2023-12-28T01:13:47;27.63;;;13.87;;
31872;SDS011;22407;42.820;23.374;2023-12-28T01:16:13;34.40;;;18.03;;
31872;SDS011;22407;42.820;23.374;2023-12-28T01:18:39;24.88;;;12.93;;
31872;SDS011;22407;42.820;23.374;2023-12-28T01:21:05;29.33;;;14.70;;
31872;SDS011;22407;42.820;23.374;2023-12-28T01:23:31;27.48;;;13.23;;
31872;SDS011;22407;42.820;23.374;2023-12-28T01:25:57;25.73;;;11.43;;
31872;SDS011;22407;42.820;23.374;2023-12-28T01:28:22;21.42;;;10.93;;
31872;SDS011;22407;42.820;23.374;2023-12-28T01:30:48;30.93;;;16.30;;
31872;SDS011;22407;42.820;23.374;2023-12-28T01:33:13;29.87;;;15.40;;
31872;SDS011;22407;42.820;23.374;2023-12-28T01:35:39;27.85;;;14.75;;
31872;SDS011;22407;42.820;23.374;2023-12-28T01:38:04;26.57;;;13.80;;
31872;SDS011;22407;42.820;23.374;2023-12-28T01:40:30;20.70;;;10.30;;
31872;SDS011;22407;42.820;23.374;2023-12-28T01:42:55;18.58;;;9.02;;
31872;SDS011;22407;42.820;23.374;2023-12-28T01:45:21;19.93;;;11.10;;
31872;SDS011;22407;42.820;23.374;2023-12-28T01:47:47;23.23;;;11.90;;
31872;SDS011;22407;42.820;23.374;2023-12-28T01:50:13;26.67;;;13.13;;
31872;SDS011;22407;42.820;23.374;2023-12-28T01:52:39;25.90;;;13.32;;
31872;SDS011;22407;42.820;23.374;2023-12-28T01:55:06;29.83;;;14.27;;
31872;SDS011;22407;42.820;23.374;2023-12-28T01:57:33;22.77;;;11.17;;
31872;SDS011;22407;42.820;23.374;2023-12-28T01:59:59;31.30;;;15.48;;
31872;SDS011;22407;42.820;23.374;2023-12-28T02:02:26;28.88;;;14.55;;
31872;SDS011;22407;42.820;23.374;2023-12-28T02:04:53;23.75;;;10.48;;
31872;SDS011;22407;42.820;23.374;2023-12-28T02:07:20;22.23;;;9.98;;
31872;SDS011;22407;42.820;23.374;2023-12-28T02:09:46;23.10;;;10.13;;
31872;SDS011;22407;42.820;23.374;2023-12-28T02:12:12;22.48;;;12.15;;
31872;SDS011;22407;42.820;23.374;2023-12-28T02:14:37;27.20;;;11.40;;
31872;SDS011;22407;42.820;23.374;2023-12-28T02:17:04;22.92;;;10.45;;
31872;SDS011;22407;42.820;23.374;2023-12-28T02:19:32;23.87;;;11.43;;
31872;SDS011;22407;42.820;23.374;2023-12-28T02:21:59;24.67;;;11.40;;
31872;SDS011;22407;42.820;23.374;2023-12-28T02:24:27;24.58;;;12.05;;
31872;SDS011;22407;42.820;23.374;2023-12-28T02:26:53;22.03;;;9.87;;
31872;SDS011;22407;42.820;23.374;2023-12-28T02:29:18;21.02;;;10.60;;
31872;SDS011;22407;42.820;23.374;2023-12-28T02:31:49;23.77;;;11.00;;
31872;SDS011;22407;42.820;23.374;2023-12-28T02:34:33;22.58;;;9.93;;
31872;SDS011;22407;42.820;23.374;2023-12-28T02:37:02;23.13;;;11.48;;
31872;SDS011;22407;42.820;23.374;2023-12-28T02:39:29;22.50;;;10.95;;
31872;SDS011;22407;42.820;23.374;2023-12-28T02:41:55;23.43;;;11.03;;
31872;SDS011;22407;42.820;23.374;2023-12-28T02:44:21;22.10;;;11.20;;
31872;SDS011;22407;42.820;23.374;2023-12-28T02:46:47;21.98;;;9.80;;
31872;SDS011;22407;42.820;23.374;2023-12-28T02:49:13;21.07;;;10.60;;
31872;SDS011;22407;42.820;23.374;2023-12-28T02:51:40;23.10;;;10.95;;
31872;SDS011;22407;42.820;23.374;2023-12-28T02:54:07;23.17;;;11.65;;
31872;SDS011;22407;42.820;23.374;2023-12-28T02:56:33;23.20;;;11.67;;
31872;SDS011;22407;42.820;23.374;2023-12-28T02:58:58;23.37;;;11.17;;
31872;SDS011;22407;42.820;23.374;2023-12-28T03:01:24;24.38;;;11.13;;
31872;SDS011;22407;42.820;23.374;2023-12-28T03:03:49;24.10;;;12.17;;
31872;SDS011;22407;42.820;23.374;2023-12-28T03:06:15;24.13;;;11.70;;
31872;SDS011;22407;42.820;23.374;2023-12-28T03:08:40;25.13;;;11.77;;
31872;SDS011;22407;42.820;23.374;2023-12-28T03:11:06;21.77;;;11.13;;
31872;SDS011;22407;42.820;23.374;2023-12-28T03:13:31;24.90;;;11.23;;
31872;SDS011;22407;42.820;23.374;2023-12-28T03:15:57;22.65;;;10.77;;
31872;SDS011;22407;42.820;23.374;2023-12-28T03:18:23;25.40;;;11.33;;
31872;SDS011;22407;42.820;23.374;2023-12-28T03:20:48;24.02;;;11.63;;
31872;SDS011;22407;42.820;23.374;2023-12-28T03:23:14;23.30;;;12.10;;
31872;SDS011;22407;42.820;23.374;2023-12-28T03:25:39;23.73;;;10.80;;
31872;SDS011;22407;42.820;23.374;2023-12-28T03:28:05;23.90;;;11.73;;
31872;SDS011;22407;42.820;23.374;2023-12-28T03:30:30;20.23;;;10.07;;
31872;SDS011;22407;42.820;23.374;2023-12-28T03:32:57;23.65;;;11.10;;
31872;SDS011;22407;42.820;23.374;2023-12-28T03:35:22;24.17;;;11.37;;
31872;SDS011;22407;42.820;23.374;2023-12-28T03:37:48;26.17;;;11.73;;
31872;SDS011;22407;42.820;23.374;2023-12-28T03:40:14;22.65;;;10.35;;
31872;SDS011;22407;42.820;23.374;2023-12-28T03:42:39;22.17;;;10.27;;
31872;SDS011;22407;42.820;23.374;2023-12-28T03:45:05;18.73;;;9.98;;
31872;SDS011;22407;42.820;23.374;2023-12-28T03:47:31;22.42;;;11.15;;
31872;SDS011;22407;42.820;23.374;2023-12-28T03:49:56;23.43;;;10.60;;
31872;SDS011;22407;42.820;23.374;2023-12-28T03:52:22;22.93;;;11.33;;
31872;SDS011;22407;42.820;23.374;2023-12-28T03:54:50;22.77;;;11.32;;
31872;SDS011;22407;42.820;23.374;2023-12-28T03:57:16;21.43;;;9.53;;
31872;SDS011;22407;42.820;23.374;2023-12-28T03:59:41;23.27;;;10.95;;
31872;SDS011;22407;42.820;23.374;2023-12-28T04:02:07;21.30;;;10.70;;
31872;SDS011;22407;42.820;23.374;2023-12-28T04:04:32;22.30;;;10.47;;
31872;SDS011;22407;42.820;23.374;2023-12-28T04:06:58;19.67;;;9.37;;
31872;SDS011;22407;42.820;23.374;2023-12-28T04:09:23;18.42;;;9.68;;
31872;SDS011;22407;42.820;23.374;2023-12-28T04:11:49;18.05;;;9.95;;
31872;SDS011;22407;42.820;23.374;2023-12-28T04:14:15;18.53;;;10.03;;
31872;SDS011;22407;42.820;23.374;2023-12-28T04:16:40;18.93;;;9.50;;
31872;SDS011;22407;42.820;23.374;2023-12-28T04:19:06;18.07;;;8.53;;
31872;SDS011;22407;42.820;23.374;2023-12-28T04:21:31;20.13;;;9.40;;
31872;SDS011;22407;42.820;23.374;2023-12-28T04:23:57;19.37;;;9.60;;
31872;SDS011;22407;42.820;23.374;2023-12-28T04:26:22;19.43;;;9.67;;
31872;SDS011;22407;42.820;23.374;2023-12-28T04:28:48;18.50;;;9.50;;
31872;SDS011;22407;42.820;23.374;2023-12-28T04:31:13;20.93;;;9.30;;
31872;SDS011;22407;42.820;23.374;2023-12-28T04:33:39;21.27;;;10.00;;
31872;SDS011;22407;42.820;23.374;2023-12-28T04:36:05;18.40;;;9.02;;
31872;SDS011;22407;42.820;23.374;2023-12-28T04:38:31;23.90;;;9.10;;
31872;SDS011;22407;42.820;23.374;2023-12-28T04:40:57;29.60;;;13.43;;
31872;SDS011;22407;42.820;23.374;2023-12-28T04:43:23;21.95;;;10.23;;
31872;SDS011;22407;42.820;23.374;2023-12-28T04:45:51;22.92;;;10.18;;
31872;SDS011;22407;42.820;23.374;2023-12-28T04:48:17;19.03;;;9.40;;
31872;SDS011;22407;42.820;23.374;2023-12-28T04:50:48;18.15;;;9.82;;
31872;SDS011;22407;42.820;23.374;2023-12-28T04:53:14;19.95;;;9.52;;
31872;SDS011;22407;42.820;23.374;2023-12-28T04:55:40;18.95;;;9.40;;
31872;SDS011;22407;42.820;23.374;2023-12-28T04:58:06;20.00;;;9.53;;
31872;SDS011;22407;42.820;23.374;2023-12-28T05:00:31;20.30;;;9.57;;
31872;SDS011;22407;42.820;23.374;2023-12-28T05:02:57;20.38;;;9.40;;
31872;SDS011;22407;42.820;23.374;2023-12-28T05:05:22;16.43;;;8.20;;
31872;SDS011;22407;42.820;23.374;2023-12-28T05:07:48;16.80;;;8.70;;
31872;SDS011;22407;42.820;23.374;2023-12-28T05:10:13;20.05;;;8.90;;
31872;SDS011;22407;42.820;23.374;2023-12-28T05:12:39;22.10;;;10.47;;
31872;SDS011;22407;42.820;23.374;2023-12-28T05:15:05;26.73;;;11.20;;
31872;SDS011;22407;42.820;23.374;2023-12-28T05:17:30;20.75;;;9.60;;
31872;SDS011;22407;42.820;23.374;2023-12-28T05:19:56;17.97;;;8.40;;
31872;SDS011;22407;42.820;23.374;2023-12-28T05:22:21;23.87;;;10.00;;
31872;SDS011;22407;42.820;23.374;2023-12-28T05:24:47;19.60;;;9.45;;
31872;SDS011;22407;42.820;23.374;2023-12-28T05:27:12;25.50;;;11.33;;
31872;SDS011;22407;42.820;23.374;2023-12-28T05:29:38;27.57;;;13.00;;
31872;SDS011;22407;42.820;23.374;2023-12-28T05:32:04;20.80;;;11.30;;
31872;SDS011;22407;42.820;23.374;2023-12-28T05:34:30;22.13;;;10.60;;
31872;SDS011;22407;42.820;23.374;2023-12-28T05:36:55;23.30;;;10.35;;
31872;SDS011;22407;42.820;23.374;2023-12-28T05:39:21;21.50;;;10.63;;
31872;SDS011;22407;42.820;23.374;2023-12-28T05:41:46;23.20;;;10.63;;
31872;SDS011;22407;42.820;23.374;2023-12-28T05:44:13;27.08;;;12.43;;
31872;SDS011;22407;42.820;23.374;2023-12-28T05:46:39;25.33;;;11.77;;
31872;SDS011;22407;42.820;23.374;2023-12-28T05:49:04;30.43;;;14.23;;
31872;SDS011;22407;42.820;23.374;2023-12-28T05:51:36;20.80;;;10.82;;
31872;SDS011;22407;42.820;23.374;2023-12-28T05:54:02;25.33;;;13.20;;
31872;SDS011;22407;42.820;23.374;2023-12-28T05:56:28;23.88;;;11.98;;
31872;SDS011;22407;42.820;23.374;2023-12-28T05:58:53;23.87;;;10.93;;
31872;SDS011;22407;42.820;23.374;2023-12-28T06:01:19;23.23;;;10.40;;
31872;SDS011;22407;42.820;23.374;2023-12-28T06:03:45;22.52;;;11.07;;
31872;SDS011;22407;42.820;23.374;2023-12-28T06:06:10;25.27;;;12.00;;
31872;SDS011;22407;42.820;23.374;2023-12-28T06:08:35;37.47;;;18.37;;
31872;SDS011;22407;42.820;23.374;2023-12-28T06:11:01;45.13;;;22.00;;
31872;SDS011;22407;42.820;23.374;2023-12-28T06:13:27;31.05;;;15.75;;
31872;SDS011;22407;42.820;23.374;2023-12-28T06:15:52;24.97;;;12.03;;
31872;SDS011;22407;42.820;23.374;2023-12-28T06:18:18;25.40;;;13.18;;
31872;SDS011;22407;42.820;23.374;2023-12-28T06:20:43;36.53;;;16.57;;
31872;SDS011;22407;42.820;23.374;2023-12-28T06:23:09;31.13;;;16.13;;
31872;SDS011;22407;42.820;23.374;2023-12-28T06:25:34;30.02;;;14.43;;
31872;SDS011;22407;42.820;23.374;2023-12-28T06:28:00;33.00;;;14.63;;
31872;SDS011;22407;42.820;23.374;2023-12-28T06:30:25;31.40;;;13.53;;
31872;SDS011;22407;42.820;23.374;2023-12-28T06:32:51;24.53;;;12.10;;
31872;SDS011;22407;42.820;23.374;2023-12-28T06:35:16;25.17;;;11.30;;
31872;SDS011;22407;42.820;23.374;2023-12-28T06:37:42;39.73;;;19.53;;
31872;SDS011;22407;42.820;23.374;2023-12-28T06:40:08;32.13;;;15.48;;
31872;SDS011;22407;42.820;23.374;2023-12-28T06:42:34;34.63;;;15.70;;
31872;SDS011;22407;42.820;23.374;2023-12-28T06:45:00;28.53;;;11.77;;
31872;SDS011;22407;42.820;23.374;2023-12-28T06:47:25;33.73;;;14.37;;
31872;SDS011;22407;42.820;23.374;2023-12-28T06:49:51;30.83;;;14.93;;
31872;SDS011;22407;42.820;23.374;2023-12-28T06:52:16;31.53;;;15.07;;
31872;SDS011;22407;42.820;23.374;2023-12-28T06:54:42;32.33;;;15.37;;
31872;SDS011;22407;42.820;23.374;2023-12-28T06:57:07;38.27;;;16.47;;
31872;SDS011;22407;42.820;23.374;2023-12-28T06:59:32;48.30;;;21.50;;
31872;SDS011;22407;42.820;23.374;2023-12-28T07:01:58;62.10;;;24.93;;
31872;SDS011;22407;42.820;23.374;2023-12-28T07:04:23;90.87;;;37.27;;
31872;SDS011;22407;42.820;23.374;2023-12-28T07:06:51;113.78;;;48.42;;
31872;SDS011;22407;42.820;23.374;2023-12-28T07:09:16;110.20;;;45.67;;
31872;SDS011;22407;42.820;23.374;2023-12-28T07:11:42;116.13;;;47.47;;
31872;SDS011;22407;42.820;23.374;2023-12-28T07:14:07;120.77;;;47.87;;
31872;SDS011;22407;42.820;23.374;2023-12-28T07:16:33;100.22;;;42.63;;
31872;SDS011;22407;42.820;23.374;2023-12-28T07:18:58;79.77;;;36.67;;
31872;SDS011;22407;42.820;23.374;2023-12-28T07:21:24;76.33;;;37.13;;
31872;SDS011;22407;42.820;23.374;2023-12-28T07:23:49;80.17;;;37.53;;
31872;SDS011;22407;42.820;23.374;2023-12-28T07:26:15;86.05;;;37.42;;
31872;SDS011;22407;42.820;23.374;2023-12-28T07:28:41;109.20;;;46.53;;
31872;SDS011;22407;42.820;23.374;2023-12-28T07:31:10;118.97;;;49.50;;
31872;SDS011;22407;42.820;23.374;2023-12-28T07:33:36;121.88;;;53.20;;
31872;SDS011;22407;42.820;23.374;2023-12-28T07:36:01;104.45;;;44.00;;
31872;SDS011;22407;42.820;23.374;2023-12-28T07:38:28;88.93;;;39.73;;
31872;SDS011;22407;42.820;23.374;2023-12-28T07:40:54;88.40;;;39.65;;
31872;SDS011;22407;42.820;23.374;2023-12-28T07:43:20;81.27;;;37.50;;
31872;SDS011;22407;42.820;23.374;2023-12-28T07:45:45;86.95;;;39.03;;
31872;SDS011;22407;42.820;23.374;2023-12-28T07:48:11;93.47;;;45.73;;
31872;SDS011;22407;42.820;23.374;2023-12-28T07:50:36;89.30;;;43.50;;
31872;SDS011;22407;42.820;23.374;2023-12-28T07:53:05;105.87;;;45.97;;
31872;SDS011;22407;42.820;23.374;2023-12-28T07:55:31;91.63;;;41.13;;
31872;SDS011;22407;42.820;23.374;2023-12-28T07:57:58;98.97;;;48.30;;
31872;SDS011;22407;42.820;23.374;2023-12-28T08:00:24;159.68;;;83.45;;
31872;SDS011;22407;42.820;23.374;2023-12-28T08:02:49;148.07;;;77.80;;
31872;SDS011;22407;42.820;23.374;2023-12-28T08:05:15;111.83;;;56.07;;
31872;SDS011;22407;42.820;23.374;2023-12-28T08:07:40;127.07;;;62.30;;
31872;SDS011;22407;42.820;23.374;2023-12-28T08:10:06;119.97;;;60.90;;
31872;SDS011;22407;42.820;23.374;2023-12-28T08:12:32;133.45;;;66.75;;
31872;SDS011;22407;42.820;23.374;2023-12-28T08:14:58;108.20;;;51.23;;
31872;SDS011;22407;42.820;23.374;2023-12-28T08:17:24;123.10;;;56.53;;
31872;SDS011;22407;42.820;23.374;2023-12-28T08:19:50;110.93;;;53.97;;
31872;SDS011;22407;42.820;23.374;2023-12-28T08:22:15;112.10;;;51.10;;
31872;SDS011;22407;42.820;23.374;2023-12-28T08:24:41;121.07;;;53.50;;
31872;SDS011;22407;42.820;23.374;2023-12-28T08:27:07;115.60;;;53.20;;
31872;SDS011;22407;42.820;23.374;2023-12-28T08:29:33;128.67;;;57.20;;
31872;SDS011;22407;42.820;23.374;2023-12-28T08:31:58;102.17;;;48.50;;
31872;SDS011;22407;42.820;23.374;2023-12-28T08:34:24;95.95;;;47.83;;
31872;SDS011;22407;42.820;23.374;2023-12-28T08:36:49;89.77;;;43.60;;
31872;SDS011;22407;42.820;23.374;2023-12-28T08:39:15;92.90;;;45.50;;
31872;SDS011;22407;42.820;23.374;2023-12-28T08:41:40;93.10;;;44.57;;
31872;SDS011;22407;42.820;23.374;2023-12-28T08:44:05;80.75;;;44.15;;
31872;SDS011;22407;42.820;23.374;2023-12-28T08:46:31;78.17;;;41.17;;
31872;SDS011;22407;42.820;23.374;2023-12-28T08:48:57;66.28;;;35.63;;
31872;SDS011;22407;42.820;23.374;2023-12-28T08:51:22;67.70;;;35.80;;
31872;SDS011;22407;42.820;23.374;2023-12-28T08:53:48;74.90;;;41.90;;
31872;SDS011;22407;42.820;23.374;2023-12-28T08:56:15;68.07;;;34.20;;
31872;SDS011;22407;42.820;23.374;2023-12-28T08:58:42;60.65;;;31.17;;
31872;SDS011;22407;42.820;23.374;2023-12-28T09:01:07;57.00;;;31.30;;
31872;SDS011;22407;42.820;23.374;2023-12-28T09:03:33;58.50;;;30.40;;
31872;SDS011;22407;42.820;23.374;2023-12-28T09:05:58;60.10;;;31.20;;
31872;SDS011;22407;42.820;23.374;2023-12-28T09:08:23;54.33;;;28.77;;
31872;SDS011;22407;42.820;23.374;2023-12-28T09:10:49;73.25;;;35.30;;
31872;SDS011;22407;42.820;23.374;2023-12-28T09:13:15;61.63;;;32.23;;
31872;SDS011;22407;42.820;23.374;2023-12-28T09:15:45;57.80;;;31.08;;
31872;SDS011;22407;42.820;23.374;2023-12-28T09:18:11;50.90;;;28.13;;
31872;SDS011;22407;42.820;23.374;2023-12-28T09:20:36;51.17;;;29.30;;
31872;SDS011;22407;42.820;23.374;2023-12-28T09:23:02;45.13;;;24.77;;
31872;SDS011;22407;42.820;23.374;2023-12-28T09:25:27;45.23;;;25.17;;
31872;SDS011;22407;42.820;23.374;2023-12-28T09:27:53;58.53;;;30.15;;
31872;SDS011;22407;42.820;23.374;2023-12-28T09:30:18;46.60;;;24.60;;
31872;SDS011;22407;42.820;23.374;2023-12-28T09:32:44;44.55;;;23.23;;
31872;SDS011;22407;42.820;23.374;2023-12-28T09:35:10;44.03;;;22.50;;
31872;SDS011;22407;42.820;23.374;2023-12-28T09:37:35;46.38;;;23.63;;
31872;SDS011;22407;42.820;23.374;2023-12-28T09:40:01;44.90;;;21.23;;
31872;SDS011;22407;42.820;23.374;2023-12-28T09:42:29;39.20;;;21.00;;
31872;SDS011;22407;42.820;23.374;2023-12-28T09:45:02;34.88;;;18.35;;
31872;SDS011;22407;42.820;23.374;2023-12-28T09:47:28;40.57;;;19.60;;
31872;SDS011;22407;42.820;23.374;2023-12-28T09:49:56;36.88;;;20.58;;
31872;SDS011;22407;42.820;23.374;2023-12-28T09:52:22;40.17;;;20.83;;
31872;SDS011;22407;42.820;23.374;2023-12-28T09:54:47;42.00;;;21.38;;
31872;SDS011;22407;42.820;23.374;2023-12-28T09:57:13;43.13;;;22.70;;
31872;SDS011;22407;42.820;23.374;2023-12-28T09:59:39;51.75;;;24.35;;
31872;SDS011;22407;42.820;23.374;2023-12-28T10:02:05;40.60;;;20.80;;
31872;SDS011;22407;42.820;23.374;2023-12-28T10:04:32;44.53;;;19.48;;
31872;SDS011;22407;42.820;23.374;2023-12-28T10:06:58;39.37;;;19.23;;
31872;SDS011;22407;42.820;23.374;2023-12-28T10:09:23;36.83;;;19.20;;
31872;SDS011;22407;42.820;23.374;2023-12-28T10:11:52;44.85;;;22.92;;
31872;SDS011;22407;42.820;23.374;2023-12-28T10:14:19;41.72;;;22.52;;
31872;SDS011;22407;42.820;23.374;2023-12-28T10:16:45;46.38;;;22.67;;
31872;SDS011;22407;42.820;23.374;2023-12-28T10:19:11;47.63;;;22.80;;
31872;SDS011;22407;42.820;23.374;2023-12-28T10:21:38;56.97;;;27.17;;
31872;SDS011;22407;42.820;23.374;2023-12-28T10:24:04;44.07;;;21.83;;
31872;SDS011;22407;42.820;23.374;2023-12-28T10:26:31;49.63;;;23.52;;
31872;SDS011;22407;42.820;23.374;2023-12-28T10:29:00;42.35;;;20.60;;
31872;SDS011;22407;42.820;23.374;2023-12-28T10:31:27;41.92;;;19.35;;
31872;SDS011;22407;42.820;23.374;2023-12-28T10:33:52;48.70;;;22.43;;
31872;SDS011;22407;42.820;23.374;2023-12-28T10:36:18;44.03;;;21.73;;
31872;SDS011;22407;42.820;23.374;2023-12-28T10:38:45;50.22;;;23.42;;
31872;SDS011;22407;42.820;23.374;2023-12-28T10:41:11;52.03;;;25.40;;
31872;SDS011;22407;42.820;23.374;2023-12-28T10:43:45;49.90;;;23.25;;
31872;SDS011;22407;42.820;23.374;2023-12-28T10:46:21;50.10;;;24.67;;
31872;SDS011;22407;42.820;23.374;2023-12-28T10:48:51;44.73;;;21.77;;
31872;SDS011;22407;42.820;23.374;2023-12-28T10:51:23;40.83;;;20.05;;
31872;SDS011;22407;42.820;23.374;2023-12-28T11:02:04;45.93;;;21.27;;
31872;SDS011;22407;42.820;23.374;2023-12-28T11:04:42;36.75;;;19.88;;
31872;SDS011;22407;42.820;23.374;2023-12-28T11:07:11;32.88;;;16.58;;
31872;SDS011;22407;42.820;23.374;2023-12-28T11:09:41;32.50;;;15.55;;
31872;SDS011;22407;42.820;23.374;2023-12-28T11:12:07;30.95;;;14.93;;
31872;SDS011;22407;42.820;23.374;2023-12-28T11:14:35;31.07;;;15.30;;
31872;SDS011;22407;42.820;23.374;2023-12-28T11:17:04;29.60;;;13.35;;
31872;SDS011;22407;42.820;23.374;2023-12-28T11:19:29;28.25;;;13.93;;
31872;SDS011;22407;42.820;23.374;2023-12-28T11:21:57;27.38;;;12.90;;
31872;SDS011;22407;42.820;23.374;2023-12-28T11:24:26;26.13;;;13.20;;
31872;SDS011;22407;42.820;23.374;2023-12-28T11:26:56;24.30;;;11.15;;
31872;SDS011;22407;42.820;23.374;2023-12-28T11:29:22;20.02;;;10.82;;
31872;SDS011;22407;42.820;23.374;2023-12-28T11:31:54;26.42;;;12.40;;
31872;SDS011;22407;42.820;23.374;2023-12-28T11:34:29;19.33;;;9.77;;
31872;SDS011;22407;42.820;23.374;2023-12-28T11:36:56;20.87;;;10.93;;
31872;SDS011;22407;42.820;23.374;2023-12-28T11:42:01;23.45;;;11.82;;
31872;SDS011;22407;42.820;23.374;2023-12-28T11:44:41;26.90;;;12.27;;
31872;SDS011;22407;42.820;23.374;2023-12-28T11:47:12;29.98;;;13.63;;
31872;SDS011;22407;42.820;23.374;2023-12-28T11:49:39;26.83;;;13.80;;
31872;SDS011;22407;42.820;23.374;2023-12-28T11:52:08;26.90;;;13.55;;
31872;SDS011;22407;42.820;23.374;2023-12-28T11:54:36;34.13;;;15.35;;
31872;SDS011;22407;42.820;23.374;2023-12-28T11:57:01;27.77;;;12.70;;
31872;SDS011;22407;42.820;23.374;2023-12-28T11:59:27;26.23;;;12.90;;
31872;SDS011;22407;42.820;23.374;2023-12-28T12:01:53;39.73;;;18.00;;
31872;SDS011;22407;42.820;23.374;2023-12-28T12:04:19;33.35;;;15.13;;
31872;SDS011;22407;42.820;23.374;2023-12-28T12:06:45;28.73;;;14.32;;
31872;SDS011;22407;42.820;23.374;2023-12-28T12:09:15;28.07;;;12.67;;
31872;SDS011;22407;42.820;23.374;2023-12-28T12:11:47;26.30;;;13.80;;
31872;SDS011;22407;42.820;23.374;2023-12-28T12:14:13;28.67;;;13.13;;
31872;SDS011;22407;42.820;23.374;2023-12-28T12:16:39;28.63;;;14.25;;
31872;SDS011;22407;42.820;23.374;2023-12-28T12:19:05;26.47;;;13.13;;
31872;SDS011;22407;42.820;23.374;2023-12-28T12:21:32;25.50;;;11.90;;
31872;SDS011;22407;42.820;23.374;2023-12-28T12:23:59;23.25;;;11.82;;
31872;SDS011;22407;42.820;23.374;2023-12-28T12:26:26;24.70;;;11.43;;
31872;SDS011;22407;42.820;23.374;2023-12-28T12:28:52;22.50;;;11.23;;
31872;SDS011;22407;42.820;23.374;2023-12-28T12:31:17;23.23;;;11.93;;
31872;SDS011;22407;42.820;23.374;2023-12-28T12:33:43;23.37;;;12.07;;
31872;SDS011;22407;42.820;23.374;2023-12-28T12:36:12;22.90;;;12.02;;
31872;SDS011;22407;42.820;23.374;2023-12-28T12:38:38;22.17;;;12.30;;
31872;SDS011;22407;42.820;23.374;2023-12-28T12:41:04;19.40;;;11.93;;
31872;SDS011;22407;42.820;23.374;2023-12-28T12:43:30;24.40;;;11.77;;
31872;SDS011;22407;42.820;23.374;2023-12-28T12:45:55;29.17;;;13.10;;
31872;SDS011;22407;42.820;23.374;2023-12-28T12:48:21;28.05;;;12.40;;
31872;SDS011;22407;42.820;23.374;2023-12-28T12:50:47;24.47;;;12.43;;
31872;SDS011;22407;42.820;23.374;2023-12-28T12:53:12;27.95;;;12.70;;
31872;SDS011;22407;42.820;23.374;2023-12-28T12:55:38;22.93;;;11.00;;
31872;SDS011;22407;42.820;23.374;2023-12-28T12:58:04;30.20;;;12.73;;
31872;SDS011;22407;42.820;23.374;2023-12-28T13:00:30;22.73;;;10.73;;
31872;SDS011;22407;42.820;23.374;2023-12-28T13:02:59;28.67;;;13.23;;
31872;SDS011;22407;42.820;23.374;2023-12-28T13:05:24;32.30;;;13.75;;
31872;SDS011;22407;42.820;23.374;2023-12-28T13:07:51;26.00;;;11.97;;
31872;SDS011;22407;42.820;23.374;2023-12-28T13:10:16;24.10;;;11.45;;
31872;SDS011;22407;42.820;23.374;2023-12-28T13:12:42;23.77;;;10.97;;
31872;SDS011;22407;42.820;23.374;2023-12-28T13:15:07;23.48;;;11.32;;
31872;SDS011;22407;42.820;23.374;2023-12-28T13:17:37;23.15;;;11.43;;
31872;SDS011;22407;42.820;23.374;2023-12-28T13:20:06;23.73;;;11.00;;
31872;SDS011;22407;42.820;23.374;2023-12-28T13:22:32;21.42;;;11.05;;
31872;SDS011;22407;42.820;23.374;2023-12-28T13:24:59;24.35;;;11.57;;
31872;SDS011;22407;42.820;23.374;2023-12-28T13:27:24;20.92;;;11.30;;
31872;SDS011;22407;42.820;23.374;2023-12-28T13:29:50;24.70;;;12.67;;
31872;SDS011;22407;42.820;23.374;2023-12-28T13:32:15;25.97;;;12.07;;
31872;SDS011;22407;42.820;23.374;2023-12-28T13:34:41;25.97;;;13.13;;
31872;SDS011;22407;42.820;23.374;2023-12-28T13:37:07;22.27;;;11.82;;
31872;SDS011;22407;42.820;23.374;2023-12-28T13:39:32;26.60;;;13.97;;
31872;SDS011;22407;42.820;23.374;2023-12-28T13:42:04;27.10;;;13.73;;
31872;SDS011;22407;42.820;23.374;2023-12-28T13:44:33;29.88;;;15.82;;
31872;SDS011;22407;42.820;23.374;2023-12-28T13:47:04;32.05;;;14.82;;
31872;SDS011;22407;42.820;23.374;2023-12-28T13:49:33;30.88;;;14.48;;
31872;SDS011;22407;42.820;23.374;2023-12-28T13:51:59;27.83;;;14.60;;
31872;SDS011;22407;42.820;23.374;2023-12-28T13:54:24;25.37;;;12.77;;
31872;SDS011;22407;42.820;23.374;2023-12-28T13:56:50;25.73;;;12.25;;
31872;SDS011;22407;42.820;23.374;2023-12-28T13:59:17;33.97;;;15.43;;
31872;SDS011;22407;42.820;23.374;2023-12-28T14:01:42;31.55;;;14.35;;
31872;SDS011;22407;42.820;23.374;2023-12-28T14:04:08;39.67;;;18.37;;
31872;SDS011;22407;42.820;23.374;2023-12-28T14:06:33;36.63;;;15.43;;
31872;SDS011;22407;42.820;23.374;2023-12-28T14:08:59;41.30;;;19.30;;
31872;SDS011;22407;42.820;23.374;2023-12-28T14:11:24;58.17;;;23.57;;
31872;SDS011;22407;42.820;23.374;2023-12-28T14:13:50;44.60;;;20.25;;
31872;SDS011;22407;42.820;23.374;2023-12-28T14:16:16;41.93;;;19.57;;
31872;SDS011;22407;42.820;23.374;2023-12-28T14:18:41;43.37;;;20.80;;
31872;SDS011;22407;42.820;23.374;2023-12-28T14:21:10;39.03;;;18.92;;
31872;SDS011;22407;42.820;23.374;2023-12-28T14:23:38;33.78;;;16.60;;
31872;SDS011;22407;42.820;23.374;2023-12-28T14:26:12;29.75;;;14.90;;
31872;SDS011;22407;42.820;23.374;2023-12-28T14:28:42;45.83;;;17.35;;
31872;SDS011;22407;42.820;23.374;2023-12-28T14:31:11;35.93;;;15.63;;
31872;SDS011;22407;42.820;23.374;2023-12-28T14:33:38;31.25;;;13.88;;
31872;SDS011;22407;42.820;23.374;2023-12-28T14:36:25;30.50;;;12.23;;